sensor_id;sensor_type;location;lat;lon;timestamp;P1;durP1;ratioP1;P2;durP2;ratioP2
8281;SDS011;25606;42.686;23.136;2023-10-31T00:01:16;1.60;;;1.50;;
8281;SDS011;25606;42.686;23.136;2023-10-31T00:03:43;1.37;;;1.27;;
8281;SDS011;25606;42.686;23.136;2023-10-31T00:06:10;1.43;;;1.33;;
8281;SDS011;25606;42.686;23.136;2023-10-31T00:08:37;1.40;;;1.30;;
8281;SDS011;25606;42.686;23.136;2023-10-31T00:11:05;1.67;;;1.57;;
8281;SDS011;25606;42.686;23.136;2023-10-31T00:13:32;1.53;;;1.43;;
8281;SDS011;25606;42.686;23.136;2023-10-31T00:16:00;1.30;;;1.20;;
8281;SDS011;25606;42.686;23.136;2023-10-31T00:18:28;1.43;;;1.33;;
8281;SDS011;25606;42.686;23.136;2023-10-31T00:20:55;1.57;;;1.47;;
8281;SDS011;25606;42.686;23.136;2023-10-31T00:23:23;1.33;;;1.27;;
8281;SDS011;25606;42.686;23.136;2023-10-31T00:25:50;1.90;;;1.70;;
8281;SDS011;25606;42.686;23.136;2023-10-31T00:28:17;1.17;;;1.13;;
8281;SDS011;25606;42.686;23.136;2023-10-31T00:30:45;2.10;;;1.43;;
8281;SDS011;25606;42.686;23.136;2023-10-31T00:33:12;1.27;;;1.17;;
8281;SDS011;25606;42.686;23.136;2023-10-31T00:35:41;1.47;;;1.37;;
8281;SDS011;25606;42.686;23.136;2023-10-31T00:38:08;1.73;;;1.47;;
8281;SDS011;25606;42.686;23.136;2023-10-31T00:40:35;1.23;;;1.17;;
8281;SDS011;25606;42.686;23.136;2023-10-31T00:43:03;1.07;;;1.07;;
8281;SDS011;25606;42.686;23.136;2023-10-31T00:45:30;1.33;;;1.27;;
8281;SDS011;25606;42.686;23.136;2023-10-31T00:47:57;1.43;;;1.33;;
8281;SDS011;25606;42.686;23.136;2023-10-31T00:50:24;1.87;;;1.77;;
8281;SDS011;25606;42.686;23.136;2023-10-31T00:52:53;1.20;;;1.17;;
8281;SDS011;25606;42.686;23.136;2023-10-31T00:55:20;1.10;;;1.07;;
8281;SDS011;25606;42.686;23.136;2023-10-31T00:57:48;1.17;;;1.17;;
8281;SDS011;25606;42.686;23.136;2023-10-31T01:00:17;1.10;;;1.10;;
8281;SDS011;25606;42.686;23.136;2023-10-31T01:02:44;0.93;;;0.93;;
8281;SDS011;25606;42.686;23.136;2023-10-31T01:05:11;0.97;;;0.97;;
8281;SDS011;25606;42.686;23.136;2023-10-31T01:07:39;1.30;;;1.30;;
8281;SDS011;25606;42.686;23.136;2023-10-31T01:10:08;1.10;;;1.10;;
8281;SDS011;25606;42.686;23.136;2023-10-31T01:12:36;1.37;;;1.27;;
8281;SDS011;25606;42.686;23.136;2023-10-31T01:15:03;1.40;;;1.33;;
8281;SDS011;25606;42.686;23.136;2023-10-31T01:17:31;1.60;;;1.50;;
8281;SDS011;25606;42.686;23.136;2023-10-31T01:19:59;1.63;;;1.53;;
8281;SDS011;25606;42.686;23.136;2023-10-31T01:22:26;1.53;;;1.50;;
8281;SDS011;25606;42.686;23.136;2023-10-31T01:24:53;1.50;;;1.40;;
8281;SDS011;25606;42.686;23.136;2023-10-31T01:27:22;0.97;;;0.97;;
8281;SDS011;25606;42.686;23.136;2023-10-31T01:29:49;1.77;;;1.67;;
8281;SDS011;25606;42.686;23.136;2023-10-31T01:32:17;1.40;;;1.30;;
8281;SDS011;25606;42.686;23.136;2023-10-31T01:34:44;1.03;;;1.03;;
8281;SDS011;25606;42.686;23.136;2023-10-31T01:37:11;1.27;;;1.23;;
8281;SDS011;25606;42.686;23.136;2023-10-31T01:39:39;1.30;;;1.27;;
8281;SDS011;25606;42.686;23.136;2023-10-31T01:42:07;0.93;;;0.93;;
8281;SDS011;25606;42.686;23.136;2023-10-31T01:44:35;2.40;;;2.20;;
8281;SDS011;25606;42.686;23.136;2023-10-31T01:47:03;1.40;;;1.30;;
8281;SDS011;25606;42.686;23.136;2023-10-31T01:49:30;1.10;;;1.10;;
8281;SDS011;25606;42.686;23.136;2023-10-31T01:51:58;1.17;;;1.17;;
8281;SDS011;25606;42.686;23.136;2023-10-31T01:54:25;1.33;;;1.30;;
8281;SDS011;25606;42.686;23.136;2023-10-31T01:56:53;1.07;;;1.03;;
8281;SDS011;25606;42.686;23.136;2023-10-31T01:59:23;1.43;;;1.33;;
8281;SDS011;25606;42.686;23.136;2023-10-31T02:01:52;1.07;;;1.07;;
8281;SDS011;25606;42.686;23.136;2023-10-31T02:04:19;0.93;;;0.93;;
8281;SDS011;25606;42.686;23.136;2023-10-31T02:06:47;1.07;;;1.07;;
8281;SDS011;25606;42.686;23.136;2023-10-31T02:09:14;0.87;;;0.87;;
8281;SDS011;25606;42.686;23.136;2023-10-31T02:11:41;1.87;;;1.77;;
8281;SDS011;25606;42.686;23.136;2023-10-31T02:14:08;1.40;;;1.20;;
8281;SDS011;25606;42.686;23.136;2023-10-31T02:16:36;1.60;;;1.50;;
8281;SDS011;25606;42.686;23.136;2023-10-31T02:19:04;1.40;;;1.37;;
8281;SDS011;25606;42.686;23.136;2023-10-31T02:21:32;0.90;;;0.90;;
8281;SDS011;25606;42.686;23.136;2023-10-31T02:24:01;1.43;;;1.33;;
8281;SDS011;25606;42.686;23.136;2023-10-31T02:26:29;1.23;;;1.20;;
8281;SDS011;25606;42.686;23.136;2023-10-31T02:28:56;1.23;;;1.20;;
8281;SDS011;25606;42.686;23.136;2023-10-31T02:31:24;2.13;;;2.00;;
8281;SDS011;25606;42.686;23.136;2023-10-31T02:33:51;1.70;;;1.60;;
8281;SDS011;25606;42.686;23.136;2023-10-31T02:36:18;1.57;;;1.50;;
8281;SDS011;25606;42.686;23.136;2023-10-31T02:38:46;1.03;;;1.03;;
8281;SDS011;25606;42.686;23.136;2023-10-31T02:41:14;0.90;;;0.90;;
8281;SDS011;25606;42.686;23.136;2023-10-31T02:43:42;1.00;;;1.00;;
8281;SDS011;25606;42.686;23.136;2023-10-31T02:46:09;1.03;;;1.03;;
8281;SDS011;25606;42.686;23.136;2023-10-31T02:48:37;1.10;;;1.07;;
8281;SDS011;25606;42.686;23.136;2023-10-31T02:51:05;1.30;;;1.23;;
8281;SDS011;25606;42.686;23.136;2023-10-31T02:53:33;1.60;;;1.50;;
8281;SDS011;25606;42.686;23.136;2023-10-31T02:56:00;1.07;;;1.07;;
8281;SDS011;25606;42.686;23.136;2023-10-31T02:58:29;1.13;;;1.13;;
8281;SDS011;25606;42.686;23.136;2023-10-31T03:00:56;1.03;;;1.03;;
8281;SDS011;25606;42.686;23.136;2023-10-31T03:03:24;1.20;;;1.20;;
8281;SDS011;25606;42.686;23.136;2023-10-31T03:05:51;1.10;;;1.00;;
8281;SDS011;25606;42.686;23.136;2023-10-31T03:08:18;0.80;;;0.80;;
8281;SDS011;25606;42.686;23.136;2023-10-31T03:10:47;1.17;;;1.07;;
8281;SDS011;25606;42.686;23.136;2023-10-31T03:13:16;0.93;;;0.93;;
8281;SDS011;25606;42.686;23.136;2023-10-31T03:15:46;1.50;;;1.00;;
8281;SDS011;25606;42.686;23.136;2023-10-31T03:18:13;1.03;;;1.03;;
8281;SDS011;25606;42.686;23.136;2023-10-31T03:20:43;0.83;;;0.83;;
8281;SDS011;25606;42.686;23.136;2023-10-31T03:23:10;1.37;;;1.30;;
8281;SDS011;25606;42.686;23.136;2023-10-31T03:25:38;0.90;;;0.90;;
8281;SDS011;25606;42.686;23.136;2023-10-31T03:28:07;1.07;;;1.07;;
8281;SDS011;25606;42.686;23.136;2023-10-31T03:30:34;1.13;;;1.13;;
8281;SDS011;25606;42.686;23.136;2023-10-31T03:33:03;1.37;;;1.30;;
8281;SDS011;25606;42.686;23.136;2023-10-31T03:35:30;1.57;;;1.50;;
8281;SDS011;25606;42.686;23.136;2023-10-31T03:37:58;1.10;;;1.10;;
8281;SDS011;25606;42.686;23.136;2023-10-31T03:40:25;0.90;;;0.90;;
8281;SDS011;25606;42.686;23.136;2023-10-31T03:42:52;1.10;;;1.10;;
8281;SDS011;25606;42.686;23.136;2023-10-31T03:45:19;1.57;;;1.57;;
8281;SDS011;25606;42.686;23.136;2023-10-31T03:47:47;1.07;;;1.07;;
8281;SDS011;25606;42.686;23.136;2023-10-31T03:50:15;0.93;;;0.93;;
8281;SDS011;25606;42.686;23.136;2023-10-31T03:52:43;2.47;;;1.17;;
8281;SDS011;25606;42.686;23.136;2023-10-31T03:55:10;1.00;;;1.00;;
8281;SDS011;25606;42.686;23.136;2023-10-31T03:57:37;1.23;;;1.23;;
8281;SDS011;25606;42.686;23.136;2023-10-31T04:00:05;0.77;;;0.77;;
8281;SDS011;25606;42.686;23.136;2023-10-31T04:02:33;0.73;;;0.73;;
8281;SDS011;25606;42.686;23.136;2023-10-31T04:05:00;0.77;;;0.77;;
8281;SDS011;25606;42.686;23.136;2023-10-31T04:07:29;0.87;;;0.87;;
8281;SDS011;25606;42.686;23.136;2023-10-31T04:09:56;1.27;;;1.17;;
8281;SDS011;25606;42.686;23.136;2023-10-31T04:12:23;0.77;;;0.77;;
8281;SDS011;25606;42.686;23.136;2023-10-31T04:14:51;1.10;;;1.10;;
8281;SDS011;25606;42.686;23.136;2023-10-31T04:17:18;0.93;;;0.93;;
8281;SDS011;25606;42.686;23.136;2023-10-31T04:19:45;0.83;;;0.83;;
8281;SDS011;25606;42.686;23.136;2023-10-31T04:22:12;1.00;;;1.00;;
8281;SDS011;25606;42.686;23.136;2023-10-31T04:24:41;1.37;;;1.33;;
8281;SDS011;25606;42.686;23.136;2023-10-31T04:27:08;0.80;;;0.80;;
8281;SDS011;25606;42.686;23.136;2023-10-31T04:29:35;1.10;;;1.10;;
8281;SDS011;25606;42.686;23.136;2023-10-31T04:32:03;0.83;;;0.83;;
8281;SDS011;25606;42.686;23.136;2023-10-31T04:34:31;0.77;;;0.77;;
8281;SDS011;25606;42.686;23.136;2023-10-31T04:36:58;1.13;;;1.13;;
8281;SDS011;25606;42.686;23.136;2023-10-31T04:39:25;1.00;;;1.00;;
8281;SDS011;25606;42.686;23.136;2023-10-31T04:41:54;1.17;;;0.93;;
8281;SDS011;25606;42.686;23.136;2023-10-31T04:44:21;0.87;;;0.87;;
8281;SDS011;25606;42.686;23.136;2023-10-31T04:46:48;0.90;;;0.90;;
8281;SDS011;25606;42.686;23.136;2023-10-31T04:49:16;0.73;;;0.73;;
8281;SDS011;25606;42.686;23.136;2023-10-31T04:51:43;1.20;;;1.20;;
8281;SDS011;25606;42.686;23.136;2023-10-31T04:54:11;0.87;;;0.87;;
8281;SDS011;25606;42.686;23.136;2023-10-31T04:56:38;0.97;;;0.97;;
8281;SDS011;25606;42.686;23.136;2023-10-31T04:59:07;0.67;;;0.67;;
8281;SDS011;25606;42.686;23.136;2023-10-31T05:01:34;1.90;;;1.70;;
8281;SDS011;25606;42.686;23.136;2023-10-31T05:04:02;1.20;;;1.20;;
8281;SDS011;25606;42.686;23.136;2023-10-31T05:06:29;0.90;;;0.90;;
8281;SDS011;25606;42.686;23.136;2023-10-31T05:08:57;1.00;;;1.00;;
8281;SDS011;25606;42.686;23.136;2023-10-31T05:11:27;1.67;;;1.00;;
8281;SDS011;25606;42.686;23.136;2023-10-31T05:13:54;0.93;;;0.93;;
8281;SDS011;25606;42.686;23.136;2023-10-31T05:16:23;1.20;;;1.20;;
8281;SDS011;25606;42.686;23.136;2023-10-31T05:18:50;0.93;;;0.93;;
8281;SDS011;25606;42.686;23.136;2023-10-31T05:21:18;0.73;;;0.73;;
8281;SDS011;25606;42.686;23.136;2023-10-31T05:23:46;0.70;;;0.70;;
8281;SDS011;25606;42.686;23.136;2023-10-31T05:26:14;0.87;;;0.87;;
8281;SDS011;25606;42.686;23.136;2023-10-31T05:28:41;1.47;;;1.43;;
8281;SDS011;25606;42.686;23.136;2023-10-31T05:31:09;1.10;;;1.10;;
8281;SDS011;25606;42.686;23.136;2023-10-31T05:33:38;0.73;;;0.73;;
8281;SDS011;25606;42.686;23.136;2023-10-31T05:36:06;1.20;;;1.20;;
8281;SDS011;25606;42.686;23.136;2023-10-31T05:38:33;1.10;;;1.10;;
8281;SDS011;25606;42.686;23.136;2023-10-31T05:41:01;0.97;;;0.97;;
8281;SDS011;25606;42.686;23.136;2023-10-31T05:43:28;1.30;;;1.30;;
8281;SDS011;25606;42.686;23.136;2023-10-31T05:45:55;1.07;;;1.07;;
8281;SDS011;25606;42.686;23.136;2023-10-31T05:48:23;0.93;;;0.93;;
8281;SDS011;25606;42.686;23.136;2023-10-31T05:50:52;1.03;;;1.03;;
8281;SDS011;25606;42.686;23.136;2023-10-31T05:53:19;1.03;;;1.03;;
8281;SDS011;25606;42.686;23.136;2023-10-31T05:55:47;1.20;;;1.10;;
8281;SDS011;25606;42.686;23.136;2023-10-31T05:58:14;0.90;;;0.90;;
8281;SDS011;25606;42.686;23.136;2023-10-31T06:00:41;1.23;;;1.23;;
8281;SDS011;25606;42.686;23.136;2023-10-31T06:03:08;1.17;;;1.17;;
8281;SDS011;25606;42.686;23.136;2023-10-31T06:05:36;1.70;;;1.60;;
8281;SDS011;25606;42.686;23.136;2023-10-31T06:08:05;1.23;;;1.23;;
8281;SDS011;25606;42.686;23.136;2023-10-31T06:10:32;1.13;;;1.13;;
8281;SDS011;25606;42.686;23.136;2023-10-31T06:12:59;0.90;;;0.90;;
8281;SDS011;25606;42.686;23.136;2023-10-31T06:15:27;1.17;;;1.17;;
8281;SDS011;25606;42.686;23.136;2023-10-31T06:17:54;1.20;;;1.20;;
8281;SDS011;25606;42.686;23.136;2023-10-31T06:20:21;1.00;;;1.00;;
8281;SDS011;25606;42.686;23.136;2023-10-31T06:22:49;1.00;;;1.00;;
8281;SDS011;25606;42.686;23.136;2023-10-31T06:25:17;1.03;;;1.03;;
8281;SDS011;25606;42.686;23.136;2023-10-31T06:27:45;1.40;;;1.33;;
8281;SDS011;25606;42.686;23.136;2023-10-31T06:30:12;1.03;;;1.03;;
8281;SDS011;25606;42.686;23.136;2023-10-31T06:32:39;1.17;;;1.10;;
8281;SDS011;25606;42.686;23.136;2023-10-31T06:35:07;1.07;;;1.07;;
8281;SDS011;25606;42.686;23.136;2023-10-31T06:37:34;1.63;;;1.53;;
8281;SDS011;25606;42.686;23.136;2023-10-31T06:40:02;1.30;;;1.30;;
8281;SDS011;25606;42.686;23.136;2023-10-31T06:42:31;0.93;;;0.93;;
8281;SDS011;25606;42.686;23.136;2023-10-31T06:44:58;1.40;;;1.33;;
8281;SDS011;25606;42.686;23.136;2023-10-31T06:47:25;1.27;;;1.27;;
8281;SDS011;25606;42.686;23.136;2023-10-31T06:49:53;1.33;;;1.30;;
8281;SDS011;25606;42.686;23.136;2023-10-31T06:52:20;1.43;;;1.37;;
8281;SDS011;25606;42.686;23.136;2023-10-31T06:54:47;1.50;;;1.40;;
8281;SDS011;25606;42.686;23.136;2023-10-31T06:57:14;1.77;;;1.67;;
8281;SDS011;25606;42.686;23.136;2023-10-31T06:59:43;1.90;;;1.60;;
8281;SDS011;25606;42.686;23.136;2023-10-31T07:02:11;1.23;;;1.20;;
8281;SDS011;25606;42.686;23.136;2023-10-31T07:04:39;2.97;;;2.13;;
8281;SDS011;25606;42.686;23.136;2023-10-31T07:07:06;1.80;;;1.70;;
8281;SDS011;25606;42.686;23.136;2023-10-31T07:09:33;1.33;;;1.23;;
8281;SDS011;25606;42.686;23.136;2023-10-31T07:12:01;2.30;;;2.13;;
8281;SDS011;25606;42.686;23.136;2023-10-31T07:14:28;1.97;;;1.87;;
8281;SDS011;25606;42.686;23.136;2023-10-31T07:16:57;1.50;;;1.40;;
8281;SDS011;25606;42.686;23.136;2023-10-31T07:19:24;2.00;;;1.87;;
8281;SDS011;25606;42.686;23.136;2023-10-31T07:21:51;2.83;;;2.60;;
8281;SDS011;25606;42.686;23.136;2023-10-31T07:24:19;1.70;;;1.60;;
8281;SDS011;25606;42.686;23.136;2023-10-31T07:26:46;1.63;;;1.53;;
8281;SDS011;25606;42.686;23.136;2023-10-31T07:29:14;1.87;;;1.73;;
8281;SDS011;25606;42.686;23.136;2023-10-31T07:31:41;2.77;;;2.30;;
8281;SDS011;25606;42.686;23.136;2023-10-31T07:34:10;2.77;;;2.03;;
8281;SDS011;25606;42.686;23.136;2023-10-31T07:36:37;3.70;;;2.43;;
8281;SDS011;25606;42.686;23.136;2023-10-31T07:39:06;4.27;;;3.07;;
8281;SDS011;25606;42.686;23.136;2023-10-31T07:41:33;3.20;;;2.77;;
8281;SDS011;25606;42.686;23.136;2023-10-31T07:44:01;2.13;;;1.70;;
8281;SDS011;25606;42.686;23.136;2023-10-31T07:46:28;3.73;;;2.60;;
8281;SDS011;25606;42.686;23.136;2023-10-31T07:48:55;3.40;;;2.27;;
8281;SDS011;25606;42.686;23.136;2023-10-31T07:51:25;2.97;;;2.50;;
8281;SDS011;25606;42.686;23.136;2023-10-31T07:53:52;4.13;;;2.97;;
8281;SDS011;25606;42.686;23.136;2023-10-31T07:56:19;4.07;;;3.10;;
8281;SDS011;25606;42.686;23.136;2023-10-31T07:58:48;5.40;;;3.47;;
8281;SDS011;25606;42.686;23.136;2023-10-31T08:01:16;6.57;;;3.40;;
8281;SDS011;25606;42.686;23.136;2023-10-31T08:03:45;4.87;;;2.80;;
8281;SDS011;25606;42.686;23.136;2023-10-31T08:06:13;8.10;;;4.23;;
8281;SDS011;25606;42.686;23.136;2023-10-31T08:08:42;3.87;;;2.90;;
8281;SDS011;25606;42.686;23.136;2023-10-31T08:11:09;4.97;;;3.03;;
8281;SDS011;25606;42.686;23.136;2023-10-31T08:13:36;3.77;;;3.03;;
8281;SDS011;25606;42.686;23.136;2023-10-31T08:16:04;2.97;;;2.40;;
8281;SDS011;25606;42.686;23.136;2023-10-31T08:18:32;4.23;;;2.87;;
8281;SDS011;25606;42.686;23.136;2023-10-31T08:20:59;5.23;;;2.90;;
8281;SDS011;25606;42.686;23.136;2023-10-31T08:23:27;4.83;;;3.10;;
8281;SDS011;25606;42.686;23.136;2023-10-31T08:25:56;6.77;;;3.83;;
8281;SDS011;25606;42.686;23.136;2023-10-31T08:28:23;5.33;;;2.93;;
8281;SDS011;25606;42.686;23.136;2023-10-31T08:30:51;6.47;;;3.30;;
8281;SDS011;25606;42.686;23.136;2023-10-31T08:33:18;4.03;;;2.30;;
8281;SDS011;25606;42.686;23.136;2023-10-31T08:35:45;5.47;;;2.93;;
8281;SDS011;25606;42.686;23.136;2023-10-31T08:38:13;6.17;;;2.83;;
8281;SDS011;25606;42.686;23.136;2023-10-31T08:40:41;6.63;;;3.30;;
8281;SDS011;25606;42.686;23.136;2023-10-31T08:43:09;3.27;;;2.30;;
8281;SDS011;25606;42.686;23.136;2023-10-31T08:45:36;3.57;;;2.37;;
8281;SDS011;25606;42.686;23.136;2023-10-31T08:48:04;3.13;;;2.17;;
8281;SDS011;25606;42.686;23.136;2023-10-31T08:50:31;3.67;;;2.20;;
8281;SDS011;25606;42.686;23.136;2023-10-31T08:53:09;5.43;;;2.50;;
8281;SDS011;25606;42.686;23.136;2023-10-31T08:55:43;5.90;;;2.90;;
8281;SDS011;25606;42.686;23.136;2023-10-31T08:58:12;4.27;;;2.20;;
8281;SDS011;25606;42.686;23.136;2023-10-31T09:00:42;9.30;;;3.27;;
8281;SDS011;25606;42.686;23.136;2023-10-31T09:03:09;8.20;;;3.20;;
8281;SDS011;25606;42.686;23.136;2023-10-31T09:05:43;9.80;;;3.50;;
8281;SDS011;25606;42.686;23.136;2023-10-31T09:08:11;9.70;;;3.20;;
8281;SDS011;25606;42.686;23.136;2023-10-31T09:10:40;10.03;;;3.23;;
8281;SDS011;25606;42.686;23.136;2023-10-31T09:13:17;11.13;;;3.50;;
8281;SDS011;25606;42.686;23.136;2023-10-31T09:15:45;10.57;;;2.83;;
8281;SDS011;25606;42.686;23.136;2023-10-31T09:18:15;11.40;;;3.33;;
8281;SDS011;25606;42.686;23.136;2023-10-31T09:20:43;11.63;;;3.60;;
8281;SDS011;25606;42.686;23.136;2023-10-31T09:23:20;15.70;;;4.10;;
8281;SDS011;25606;42.686;23.136;2023-10-31T09:25:47;20.17;;;4.73;;
8281;SDS011;25606;42.686;23.136;2023-10-31T09:28:16;19.70;;;4.43;;
8281;SDS011;25606;42.686;23.136;2023-10-31T09:30:44;35.70;;;7.73;;
8281;SDS011;25606;42.686;23.136;2023-10-31T09:33:11;34.53;;;7.53;;
8281;SDS011;25606;42.686;23.136;2023-10-31T09:35:38;33.47;;;6.30;;
8281;SDS011;25606;42.686;23.136;2023-10-31T09:38:06;31.50;;;6.30;;
8281;SDS011;25606;42.686;23.136;2023-10-31T09:40:33;26.97;;;5.30;;
8281;SDS011;25606;42.686;23.136;2023-10-31T09:43:00;27.00;;;5.30;;
8281;SDS011;25606;42.686;23.136;2023-10-31T09:45:29;31.50;;;6.33;;
8281;SDS011;25606;42.686;23.136;2023-10-31T09:47:56;25.87;;;5.23;;
8281;SDS011;25606;42.686;23.136;2023-10-31T09:50:24;19.80;;;4.25;;
8281;SDS011;25606;42.686;23.136;2023-10-31T09:52:52;23.65;;;4.50;;
8281;SDS011;25606;42.686;23.136;2023-10-31T09:55:19;28.67;;;6.27;;
8281;SDS011;25606;42.686;23.136;2023-10-31T09:57:47;20.03;;;4.43;;
8281;SDS011;25606;42.686;23.136;2023-10-31T10:00:15;24.57;;;5.03;;
8281;SDS011;25606;42.686;23.136;2023-10-31T10:02:43;19.07;;;4.30;;
8281;SDS011;25606;42.686;23.136;2023-10-31T10:05:11;24.60;;;5.33;;
8281;SDS011;25606;42.686;23.136;2023-10-31T10:07:41;20.77;;;4.93;;
8281;SDS011;25606;42.686;23.136;2023-10-31T10:10:10;24.73;;;5.77;;
8281;SDS011;25606;42.686;23.136;2023-10-31T10:12:37;16.97;;;4.17;;
8281;SDS011;25606;42.686;23.136;2023-10-31T10:15:05;20.80;;;5.03;;
8281;SDS011;25606;42.686;23.136;2023-10-31T10:17:32;18.90;;;4.40;;
8281;SDS011;25606;42.686;23.136;2023-10-31T10:20:08;17.27;;;4.07;;
8281;SDS011;25606;42.686;23.136;2023-10-31T10:22:36;19.00;;;4.50;;
8281;SDS011;25606;42.686;23.136;2023-10-31T10:25:05;23.93;;;5.57;;
8281;SDS011;25606;42.686;23.136;2023-10-31T10:27:33;14.03;;;3.80;;
8281;SDS011;25606;42.686;23.136;2023-10-31T10:30:01;11.57;;;3.40;;
8281;SDS011;25606;42.686;23.136;2023-10-31T10:32:28;14.53;;;3.97;;
8281;SDS011;25606;42.686;23.136;2023-10-31T10:34:56;14.97;;;3.87;;
8281;SDS011;25606;42.686;23.136;2023-10-31T10:37:25;17.23;;;4.27;;
8281;SDS011;25606;42.686;23.136;2023-10-31T10:39:53;13.77;;;3.67;;
8281;SDS011;25606;42.686;23.136;2023-10-31T10:42:21;16.50;;;4.27;;
8281;SDS011;25606;42.686;23.136;2023-10-31T10:44:53;13.47;;;3.57;;
8281;SDS011;25606;42.686;23.136;2023-10-31T10:47:23;16.43;;;4.27;;
8281;SDS011;25606;42.686;23.136;2023-10-31T10:49:51;18.60;;;4.40;;
8281;SDS011;25606;42.686;23.136;2023-10-31T10:52:22;16.10;;;4.10;;
8281;SDS011;25606;42.686;23.136;2023-10-31T10:54:53;19.47;;;4.73;;
8281;SDS011;25606;42.686;23.136;2023-10-31T10:57:24;22.43;;;5.33;;
8281;SDS011;25606;42.686;23.136;2023-10-31T10:59:55;28.57;;;6.20;;
8281;SDS011;25606;42.686;23.136;2023-10-31T11:02:22;21.10;;;4.50;;
8281;SDS011;25606;42.686;23.136;2023-10-31T11:04:50;28.47;;;6.13;;
8281;SDS011;25606;42.686;23.136;2023-10-31T11:07:18;23.20;;;4.90;;
8281;SDS011;25606;42.686;23.136;2023-10-31T11:09:47;20.10;;;4.33;;
8281;SDS011;25606;42.686;23.136;2023-10-31T11:12:16;19.70;;;4.60;;
8281;SDS011;25606;42.686;23.136;2023-10-31T11:14:45;18.00;;;4.17;;
8281;SDS011;25606;42.686;23.136;2023-10-31T11:17:15;14.10;;;3.40;;
8281;SDS011;25606;42.686;23.136;2023-10-31T11:19:47;19.20;;;4.40;;
8281;SDS011;25606;42.686;23.136;2023-10-31T11:22:15;17.17;;;4.00;;
8281;SDS011;25606;42.686;23.136;2023-10-31T11:24:44;15.43;;;3.97;;
8281;SDS011;25606;42.686;23.136;2023-10-31T11:27:12;18.57;;;4.37;;
8281;SDS011;25606;42.686;23.136;2023-10-31T11:29:40;13.83;;;3.27;;
8281;SDS011;25606;42.686;23.136;2023-10-31T11:34:53;25.27;;;5.23;;
8281;SDS011;25606;42.686;23.136;2023-10-31T11:37:24;23.37;;;4.70;;
8281;SDS011;25606;42.686;23.136;2023-10-31T11:42:47;20.03;;;4.40;;
8281;SDS011;25606;42.686;23.136;2023-10-31T11:45:29;20.07;;;4.40;;
8281;SDS011;25606;42.686;23.136;2023-10-31T11:47:57;21.50;;;4.87;;
8281;SDS011;25606;42.686;23.136;2023-10-31T11:50:24;20.60;;;4.50;;
8281;SDS011;25606;42.686;23.136;2023-10-31T11:52:58;24.07;;;5.13;;
8281;SDS011;25606;42.686;23.136;2023-10-31T11:55:25;29.97;;;6.27;;
8281;SDS011;25606;42.686;23.136;2023-10-31T11:57:52;17.93;;;4.37;;
8281;SDS011;25606;42.686;23.136;2023-10-31T12:00:20;18.07;;;4.50;;
8281;SDS011;25606;42.686;23.136;2023-10-31T12:02:59;22.70;;;5.07;;
8281;SDS011;25606;42.686;23.136;2023-10-31T12:05:26;25.30;;;6.13;;
8281;SDS011;25606;42.686;23.136;2023-10-31T12:07:53;21.43;;;4.70;;
8281;SDS011;25606;42.686;23.136;2023-10-31T12:10:21;24.27;;;5.17;;
8281;SDS011;25606;42.686;23.136;2023-10-31T12:12:49;29.43;;;5.67;;
8281;SDS011;25606;42.686;23.136;2023-10-31T12:15:16;22.37;;;4.30;;
8281;SDS011;25606;42.686;23.136;2023-10-31T12:17:43;22.13;;;4.73;;
8281;SDS011;25606;42.686;23.136;2023-10-31T12:20:12;17.23;;;4.03;;
8281;SDS011;25606;42.686;23.136;2023-10-31T12:22:41;17.07;;;4.67;;
8281;SDS011;25606;42.686;23.136;2023-10-31T12:25:09;18.20;;;4.20;;
8281;SDS011;25606;42.686;23.136;2023-10-31T12:27:43;15.73;;;3.87;;
8281;SDS011;25606;42.686;23.136;2023-10-31T12:30:11;15.37;;;3.83;;
8281;SDS011;25606;42.686;23.136;2023-10-31T12:32:39;24.30;;;5.53;;
8281;SDS011;25606;42.686;23.136;2023-10-31T12:35:07;18.53;;;4.27;;
8281;SDS011;25606;42.686;23.136;2023-10-31T12:37:36;16.00;;;3.93;;
8281;SDS011;25606;42.686;23.136;2023-10-31T12:40:04;24.77;;;5.37;;
8281;SDS011;25606;42.686;23.136;2023-10-31T12:42:34;19.60;;;4.23;;
8281;SDS011;25606;42.686;23.136;2023-10-31T12:45:02;23.27;;;4.97;;
8281;SDS011;25606;42.686;23.136;2023-10-31T12:47:30;23.30;;;5.10;;
8281;SDS011;25606;42.686;23.136;2023-10-31T12:50:07;19.97;;;4.50;;
8281;SDS011;25606;42.686;23.136;2023-10-31T12:52:51;18.80;;;4.43;;
8281;SDS011;25606;42.686;23.136;2023-10-31T12:55:19;22.50;;;5.40;;
8281;SDS011;25606;42.686;23.136;2023-10-31T12:57:47;22.43;;;4.70;;
8281;SDS011;25606;42.686;23.136;2023-10-31T13:00:15;20.77;;;4.50;;
8281;SDS011;25606;42.686;23.136;2023-10-31T13:02:49;16.07;;;3.70;;
8281;SDS011;25606;42.686;23.136;2023-10-31T13:05:16;17.57;;;4.20;;
8281;SDS011;25606;42.686;23.136;2023-10-31T13:07:51;22.57;;;4.63;;
8281;SDS011;25606;42.686;23.136;2023-10-31T13:10:20;23.30;;;4.67;;
8281;SDS011;25606;42.686;23.136;2023-10-31T13:12:48;23.20;;;4.60;;
8281;SDS011;25606;42.686;23.136;2023-10-31T13:15:16;14.77;;;4.00;;
8281;SDS011;25606;42.686;23.136;2023-10-31T13:17:43;18.80;;;4.80;;
8281;SDS011;25606;42.686;23.136;2023-10-31T13:20:11;23.07;;;6.13;;
8281;SDS011;25606;42.686;23.136;2023-10-31T13:22:39;16.57;;;4.60;;
8281;SDS011;25606;42.686;23.136;2023-10-31T13:25:09;15.60;;;4.43;;
8281;SDS011;25606;42.686;23.136;2023-10-31T13:27:37;15.33;;;4.40;;
8281;SDS011;25606;42.686;23.136;2023-10-31T13:30:06;13.87;;;3.93;;
8281;SDS011;25606;42.686;23.136;2023-10-31T13:32:34;13.07;;;3.73;;
8281;SDS011;25606;42.686;23.136;2023-10-31T13:35:01;16.33;;;4.87;;
8281;SDS011;25606;42.686;23.136;2023-10-31T13:37:29;11.37;;;3.77;;
8281;SDS011;25606;42.686;23.136;2023-10-31T13:39:59;13.73;;;4.60;;
8281;SDS011;25606;42.686;23.136;2023-10-31T13:42:28;14.03;;;4.27;;
8281;SDS011;25606;42.686;23.136;2023-10-31T13:44:55;10.70;;;3.80;;
8281;SDS011;25606;42.686;23.136;2023-10-31T17:09:40;12.97;;;6.03;;
8281;SDS011;25606;42.686;23.136;2023-10-31T17:12:07;7.07;;;3.37;;
8281;SDS011;25606;42.686;23.136;2023-10-31T17:14:35;6.23;;;3.43;;
8281;SDS011;25606;42.686;23.136;2023-10-31T17:17:02;5.83;;;3.23;;
8281;SDS011;25606;42.686;23.136;2023-10-31T17:19:30;4.60;;;3.00;;
8281;SDS011;25606;42.686;23.136;2023-10-31T17:21:57;5.07;;;3.17;;
8281;SDS011;25606;42.686;23.136;2023-10-31T17:24:25;3.60;;;2.13;;
8281;SDS011;25606;42.686;23.136;2023-10-31T17:26:53;3.60;;;2.40;;
8281;SDS011;25606;42.686;23.136;2023-10-31T17:29:21;5.30;;;2.90;;
8281;SDS011;25606;42.686;23.136;2023-10-31T17:31:48;5.47;;;2.73;;
8281;SDS011;25606;42.686;23.136;2023-10-31T17:34:15;5.03;;;2.93;;
8281;SDS011;25606;42.686;23.136;2023-10-31T17:36:43;3.20;;;2.17;;
8281;SDS011;25606;42.686;23.136;2023-10-31T17:39:10;3.93;;;2.33;;
8281;SDS011;25606;42.686;23.136;2023-10-31T17:41:38;3.03;;;2.03;;
8281;SDS011;25606;42.686;23.136;2023-10-31T17:44:07;4.67;;;3.07;;
8281;SDS011;25606;42.686;23.136;2023-10-31T17:46:34;4.13;;;2.57;;
8281;SDS011;25606;42.686;23.136;2023-10-31T17:49:01;4.23;;;2.53;;
8281;SDS011;25606;42.686;23.136;2023-10-31T17:51:28;4.57;;;2.90;;
8281;SDS011;25606;42.686;23.136;2023-10-31T17:53:56;5.93;;;3.30;;
8281;SDS011;25606;42.686;23.136;2023-10-31T17:56:23;5.60;;;3.03;;
8281;SDS011;25606;42.686;23.136;2023-10-31T17:58:51;4.27;;;2.57;;
8281;SDS011;25606;42.686;23.136;2023-10-31T18:01:19;5.30;;;2.87;;
8281;SDS011;25606;42.686;23.136;2023-10-31T18:03:47;6.47;;;3.53;;
8281;SDS011;25606;42.686;23.136;2023-10-31T18:06:14;6.37;;;3.07;;
8281;SDS011;25606;42.686;23.136;2023-10-31T18:08:42;3.73;;;2.50;;
8281;SDS011;25606;42.686;23.136;2023-10-31T18:11:09;3.63;;;2.20;;
8281;SDS011;25606;42.686;23.136;2023-10-31T18:13:39;4.67;;;2.83;;
8281;SDS011;25606;42.686;23.136;2023-10-31T18:16:11;5.00;;;2.90;;